createdAt,value
2022-08-11T00:00:48.556Z,69.41
2022-08-11T00:01:48.504Z,69.08
2022-08-11T00:02:48.511Z,70.24
2022-08-11T00:03:48.465Z,70.58
2022-08-11T00:04:48.460Z,68.22
2022-08-11T00:05:48.416Z,65.10
2022-08-11T00:06:48.426Z,68.81
2022-08-11T00:07:48.372Z,68.40
2022-08-11T00:08:48.359Z,70.42
2022-08-11T00:09:48.336Z,69.36
2022-08-11T00:10:48.309Z,68.56
2022-08-11T00:11:48.318Z,66.37
2022-08-11T00:12:48.278Z,69.51
2022-08-11T00:13:48.249Z,70.37
2022-08-11T00:14:48.227Z,70.86
2022-08-11T00:15:48.804Z,67.90
2022-08-11T00:16:48.218Z,70.99
2022-08-11T00:17:48.166Z,63.62
2022-08-11T00:18:48.137Z,63.34
2022-08-11T00:20:11.837Z,71.51
2022-08-11T00:20:49.104Z,70.86
2022-08-11T00:22:05.348Z,70.45
2022-08-11T00:22:49.058Z,68.35
2022-08-11T00:23:48.037Z,70.02
2022-08-11T00:24:52.066Z,70.31
2022-08-11T00:25:49.001Z,70.41
2022-08-11T00:26:47.998Z,70.96
2022-08-11T00:27:47.954Z,70.19
2022-08-11T00:28:47.942Z,70.26
2022-08-11T00:29:51.634Z,69.74
2022-08-11T00:30:47.894Z,72.52
2022-08-11T00:31:47.896Z,69.58
2022-08-11T00:32:47.855Z,70.22
2022-08-11T00:33:47.826Z,69.93
2022-08-11T00:34:47.806Z,66.54
2022-08-11T00:35:55.087Z,68.60
2022-08-11T00:36:48.788Z,69.73
2022-08-11T00:37:47.736Z,69.63
2022-08-11T00:38:48.716Z,70.04
2022-08-11T00:39:47.960Z,69.74
2022-08-11T00:40:47.681Z,68.00
2022-08-11T00:41:47.684Z,68.22
2022-08-11T00:42:48.641Z,69.85
2022-08-11T00:43:47.619Z,71.10
2022-08-11T00:44:47.602Z,67.51
2022-08-11T00:45:47.577Z,68.01
2022-08-11T00:46:47.583Z,69.48
2022-08-11T00:47:47.538Z,71.21
2022-08-11T00:48:47.516Z,70.95
2022-08-11T00:49:47.498Z,69.42
2022-08-11T00:50:47.476Z,69.15
2022-08-11T00:52:02.046Z,68.02
2022-08-11T00:52:48.436Z,72.43
2022-08-11T00:53:47.415Z,70.96
2022-08-11T00:54:47.394Z,70.27
2022-08-11T00:55:55.446Z,70.87
2022-08-11T00:56:48.375Z,70.30
2022-08-11T00:57:47.334Z,70.61
2022-08-11T00:58:50.651Z,67.14
2022-08-11T00:59:47.292Z,68.74
2022-08-11T01:00:47.361Z,70.97
2022-08-11T01:01:47.292Z,68.78
2022-08-11T01:02:47.249Z,68.69
2022-08-11T01:03:47.253Z,71.02
2022-08-11T01:04:47.186Z,70.34
2022-08-11T01:05:48.165Z,69.73
2022-08-11T01:06:47.177Z,69.65
2022-08-11T01:08:01.457Z,69.04
2022-08-11T01:08:48.108Z,69.75
2022-08-11T01:09:47.083Z,64.68
2022-08-11T01:10:47.065Z,67.74
2022-08-11T01:11:56.054Z,67.52
2022-08-11T01:12:48.027Z,68.95
2022-08-11T01:13:47.006Z,68.87
2022-08-11T01:14:46.983Z,70.85
2022-08-11T01:15:55.633Z,72.37
2022-08-11T01:16:47.971Z,67.16
2022-08-11T01:17:46.922Z,68.66
2022-08-11T01:18:46.900Z,69.15
2022-08-11T01:20:47.862Z,69.93
2022-08-11T01:20:49.437Z,67.29
2022-08-11T01:21:47.868Z,71.27
2022-08-11T01:22:46.817Z,66.41
2022-08-11T01:23:46.799Z,70.36
2022-08-11T01:24:46.775Z,72.29
2022-08-11T01:25:56.705Z,70.06
2022-08-11T01:26:47.769Z,68.83
2022-08-11T01:27:46.711Z,71.82
2022-08-11T01:28:46.688Z,68.10
2022-08-11T01:29:49.175Z,68.56
2022-08-11T01:30:47.644Z,66.85
2022-08-11T01:31:46.652Z,71.22
2022-08-11T01:32:46.603Z,71.13
2022-08-11T01:33:46.586Z,69.30
2022-08-11T01:34:46.561Z,72.00
2022-08-11T01:35:46.541Z,69.14
2022-08-11T01:36:46.551Z,68.66
2022-08-11T01:37:47.501Z,67.47
2022-08-11T01:38:46.480Z,68.03
2022-08-11T01:39:46.538Z,69.75
2022-08-11T01:40:46.434Z,70.79
2022-08-11T01:41:46.440Z,68.98
2022-08-11T01:42:46.394Z,71.40
2022-08-11T01:43:46.383Z,70.29
2022-08-11T01:44:46.353Z,65.51
2022-08-11T01:45:46.329Z,70.67
2022-08-11T01:46:46.338Z,70.10
2022-08-11T01:47:52.450Z,70.01
2022-08-11T01:48:47.270Z,65.32
2022-08-11T01:50:08.589Z,69.40
2022-08-11T01:50:47.229Z,70.17
2022-08-11T01:51:46.242Z,71.17
2022-08-11T01:52:46.208Z,70.36
2022-08-11T01:53:46.156Z,69.89
2022-08-11T01:54:46.137Z,71.70
2022-08-11T01:55:46.111Z,71.18
2022-08-11T01:56:46.131Z,71.44
2022-08-11T01:57:46.072Z,70.04
2022-08-11T01:58:46.061Z,70.08
2022-08-11T01:59:46.035Z,70.88
2022-08-11T02:00:46.104Z,72.51
2022-08-11T02:01:45.986Z,66.44
2022-08-11T02:02:46.065Z,69.83
2022-08-11T02:03:45.944Z,67.50
2022-08-11T02:04:47.047Z,68.91
2022-08-11T02:05:45.906Z,70.47
2022-08-11T02:06:45.909Z,69.84
2022-08-11T02:07:45.859Z,67.35
2022-08-11T02:08:49.591Z,73.25
2022-08-11T02:09:49.503Z,70.14
2022-08-11T02:10:50.378Z,70.81
2022-08-11T02:11:46.804Z,70.39
2022-08-11T02:12:52.267Z,70.21
2022-08-11T02:13:46.788Z,64.46
2022-08-11T02:14:53.626Z,72.32
2022-08-11T02:15:46.699Z,70.09
2022-08-11T02:16:45.667Z,71.27
2022-08-11T02:17:45.669Z,69.49
2022-08-11T02:18:46.634Z,70.75
2022-08-11T02:19:46.106Z,68.43
2022-08-11T02:20:45.584Z,68.60
2022-08-11T02:21:45.560Z,70.42
2022-08-11T02:22:45.567Z,71.02
2022-08-11T02:24:04.075Z,70.17
2022-08-11T02:24:46.507Z,70.59
2022-08-11T02:25:45.481Z,69.51
2022-08-11T02:26:45.460Z,66.37
2022-08-11T02:27:45.464Z,69.92
2022-08-11T02:28:46.707Z,73.06
2022-08-11T02:29:45.393Z,70.77
2022-08-11T02:30:45.375Z,71.14
2022-08-11T02:32:15.874Z,71.03
2022-08-11T02:32:46.363Z,71.64
2022-08-11T02:33:45.318Z,72.00
2022-08-11T02:34:59.509Z,73.18
2022-08-11T02:35:46.272Z,68.13
2022-08-11T02:36:45.281Z,70.80
2022-08-11T02:37:45.341Z,68.68
2022-08-11T02:38:45.200Z,69.63
2022-08-11T02:39:46.242Z,71.19
2022-08-11T02:40:45.168Z,70.29
2022-08-11T02:41:45.175Z,69.46
2022-08-11T02:42:45.505Z,69.13
2022-08-11T02:43:50.895Z,69.79
2022-08-11T02:44:46.094Z,69.85
2022-08-11T02:45:45.070Z,69.57
2022-08-11T02:46:45.071Z,69.73
2022-08-11T02:47:45.021Z,70.54
2022-08-11T02:48:45.027Z,69.11
2022-08-11T02:49:44.980Z,72.46
2022-08-11T02:50:44.960Z,71.76
2022-08-11T02:51:44.934Z,70.53
2022-08-11T02:52:44.919Z,72.23
2022-08-11T02:53:44.922Z,69.78
2022-08-11T02:54:45.879Z,70.26
2022-08-11T02:55:57.576Z,72.10
2022-08-11T02:56:45.864Z,73.67
2022-08-11T02:57:44.813Z,71.55
2022-08-11T02:58:44.787Z,70.87
2022-08-11T02:59:44.766Z,69.01
2022-08-11T03:00:44.752Z,71.03
2022-08-11T03:01:44.765Z,72.93
2022-08-11T03:02:44.729Z,70.02
2022-08-11T03:03:44.681Z,74.74
2022-08-11T03:04:44.663Z,73.22
2022-08-11T03:05:44.639Z,69.93
2022-08-11T03:06:44.613Z,71.09
2022-08-11T03:07:44.624Z,70.66
2022-08-11T03:08:44.580Z,71.67
2022-08-11T03:09:44.579Z,72.75
2022-08-11T03:10:44.540Z,71.12
2022-08-11T03:11:44.511Z,70.84
2022-08-11T03:12:44.522Z,72.82
2022-08-11T03:13:44.479Z,71.40
2022-08-11T03:14:44.445Z,70.70
2022-08-11T03:15:44.559Z,71.80
2022-08-11T03:16:44.411Z,71.61
2022-08-11T03:17:44.410Z,71.12
2022-08-11T03:18:44.361Z,70.23
2022-08-11T03:19:44.342Z,71.73
2022-08-11T03:20:44.326Z,71.90
2022-08-11T03:22:02.973Z,72.19
2022-08-11T03:22:45.305Z,73.23
2022-08-11T03:23:44.257Z,72.01
2022-08-11T03:24:44.242Z,70.16
2022-08-11T03:25:44.216Z,71.86
2022-08-11T03:26:44.197Z,73.65
2022-08-11T03:27:44.202Z,73.60
2022-08-11T03:28:44.158Z,73.83
2022-08-11T03:29:44.135Z,72.22
2022-08-11T03:30:44.115Z,74.91
2022-08-11T03:31:44.640Z,71.50
2022-08-11T03:32:44.099Z,71.29
2022-08-11T03:33:44.055Z,70.35
2022-08-11T03:34:44.031Z,73.60
2022-08-11T03:35:44.010Z,73.69
2022-08-11T03:37:15.575Z,73.57
2022-08-11T03:37:44.993Z,72.10
2022-08-11T03:38:43.945Z,72.04
2022-08-11T03:39:56.109Z,72.11
2022-08-11T03:40:44.903Z,73.28
2022-08-11T03:42:02.026Z,71.08
2022-08-11T03:42:44.929Z,71.37
2022-08-11T03:43:45.801Z,71.87
2022-08-11T03:44:44.818Z,73.90
2022-08-11T03:45:43.795Z,72.25
2022-08-11T03:46:43.774Z,72.85
2022-08-11T03:47:52.585Z,73.87
2022-08-11T03:48:44.746Z,72.94
2022-08-11T03:49:43.723Z,72.81
2022-08-11T03:50:43.692Z,69.90
2022-08-11T03:51:45.294Z,74.78
2022-08-11T03:52:44.670Z,73.20
2022-08-11T03:53:44.628Z,72.18
2022-08-11T03:54:43.608Z,73.61
2022-08-11T03:55:43.624Z,72.69
2022-08-11T03:56:43.562Z,71.16
2022-08-11T03:57:43.565Z,74.06
2022-08-11T03:58:46.364Z,73.54
2022-08-11T03:59:43.496Z,70.61
2022-08-11T04:00:43.475Z,72.71
2022-08-11T04:01:43.486Z,73.68
2022-08-11T04:02:43.457Z,73.29
2022-08-11T04:03:43.411Z,72.84
2022-08-11T04:04:51.475Z,73.27
2022-08-11T04:05:44.369Z,73.23
2022-08-11T04:06:43.351Z,73.51
2022-08-11T04:07:43.351Z,72.52
2022-08-11T04:08:43.306Z,73.58
2022-08-11T04:09:43.285Z,71.75
2022-08-11T04:10:43.260Z,74.57
2022-08-11T04:11:43.238Z,72.26
2022-08-11T04:12:47.562Z,74.96
2022-08-11T04:13:44.194Z,73.54
2022-08-11T04:14:43.170Z,74.17
2022-08-11T04:15:43.152Z,72.79
2022-08-11T04:16:43.159Z,73.59
2022-08-11T04:17:43.135Z,72.00
2022-08-11T04:18:43.086Z,72.41
2022-08-11T04:19:43.066Z,73.13
2022-08-11T04:20:43.044Z,71.26
2022-08-11T04:21:43.025Z,71.29
2022-08-11T04:22:43.025Z,72.72
2022-08-11T04:24:35.792Z,71.70
2022-08-11T04:24:48.396Z,73.83
2022-08-11T04:25:57.946Z,73.11
2022-08-11T04:26:43.921Z,74.36
2022-08-11T04:27:42.927Z,72.18
2022-08-11T04:28:49.852Z,71.98
2022-08-11T04:30:03.202Z,73.80
2022-08-11T04:30:43.842Z,74.44
2022-08-11T04:31:44.472Z,70.90
2022-08-11T04:32:43.830Z,72.75
2022-08-11T04:33:42.782Z,73.37
2022-08-11T04:34:42.794Z,74.55
2022-08-11T04:35:44.928Z,74.81
2022-08-11T04:36:43.725Z,73.64
2022-08-11T04:37:42.743Z,73.84
2022-08-11T04:38:42.704Z,72.28
2022-08-11T04:39:42.741Z,73.02
2022-08-11T04:40:42.645Z,72.64
2022-08-11T04:41:42.703Z,72.70
2022-08-11T04:42:42.631Z,70.19
2022-08-11T04:44:02.768Z,71.20
2022-08-11T04:44:43.618Z,72.66
2022-08-11T04:45:42.548Z,74.22
2022-08-11T04:46:42.589Z,71.71
2022-08-11T04:48:01.495Z,71.06
2022-08-11T04:48:43.522Z,71.44
2022-08-11T04:49:42.473Z,73.10
2022-08-11T04:50:42.462Z,72.14
2022-08-11T04:51:43.437Z,70.45
2022-08-11T04:52:42.656Z,72.64
2022-08-11T04:53:42.400Z,73.52
2022-08-11T04:54:42.414Z,72.41
2022-08-11T04:55:42.364Z,72.55
2022-08-11T04:56:42.342Z,72.28
2022-08-11T04:57:42.328Z,71.48
2022-08-11T04:58:42.307Z,72.36
2022-08-11T04:59:42.318Z,70.42
2022-08-11T05:00:42.272Z,69.63
2022-08-11T05:01:42.379Z,69.91
2022-08-11T05:02:42.238Z,70.56
2022-08-11T05:03:42.213Z,70.86
2022-08-11T05:04:42.221Z,70.21
2022-08-11T05:05:42.181Z,72.30
2022-08-11T05:06:43.162Z,71.10
2022-08-11T05:07:42.144Z,70.52
2022-08-11T05:08:42.128Z,71.98
2022-08-11T05:09:42.136Z,71.80
2022-08-11T05:10:43.344Z,70.59
2022-08-11T05:11:42.074Z,70.75
2022-08-11T05:12:42.054Z,70.50
2022-08-11T05:13:42.039Z,70.91
2022-08-11T05:14:42.048Z,70.45
2022-08-11T05:15:42.726Z,69.53
2022-08-11T05:16:41.984Z,69.34
2022-08-11T05:17:41.966Z,70.11
2022-08-11T05:18:41.954Z,68.87
2022-08-11T05:19:41.958Z,71.40
2022-08-11T05:20:41.912Z,70.26
2022-08-11T05:21:44.934Z,70.54
2022-08-11T05:22:41.878Z,70.21
2022-08-11T05:23:41.861Z,71.37
2022-08-11T05:24:41.864Z,69.44
2022-08-11T05:26:43.688Z,68.07
2022-08-11T05:26:48.884Z,70.49
2022-08-11T05:27:42.789Z,71.13
2022-08-11T05:28:41.769Z,68.85
2022-08-11T05:29:41.780Z,68.86
2022-08-11T05:30:41.733Z,67.28
2022-08-11T05:31:41.717Z,68.99
2022-08-11T05:32:41.698Z,69.68
2022-08-11T05:33:41.681Z,70.54
2022-08-11T05:34:41.687Z,70.63
2022-08-11T05:36:00.312Z,68.11
2022-08-11T05:36:42.631Z,69.41
2022-08-11T05:37:41.612Z,68.44
2022-08-11T05:38:41.587Z,67.71
2022-08-11T05:39:41.692Z,69.28
2022-08-11T05:40:41.557Z,68.78
2022-08-11T05:41:42.542Z,68.76
2022-08-11T05:42:41.762Z,69.72
2022-08-11T05:44:20.552Z,70.53
2022-08-11T05:44:42.532Z,68.60
2022-08-11T05:45:58.128Z,67.27
2022-08-11T05:46:42.452Z,67.83
2022-08-11T05:47:41.438Z,67.83
2022-08-11T05:48:41.412Z,70.08
2022-08-11T05:49:42.430Z,67.51
2022-08-11T05:50:41.387Z,67.51
2022-08-11T05:51:52.449Z,67.60
2022-08-11T05:52:42.424Z,69.42
2022-08-11T05:53:46.344Z,69.01
2022-08-11T05:54:42.354Z,67.30
2022-08-11T05:56:01.952Z,66.39
2022-08-11T05:56:42.285Z,69.42
2022-08-11T05:57:50.416Z,69.21
2022-08-11T05:58:43.079Z,68.46
2022-08-11T05:59:42.263Z,68.59
2022-08-11T06:00:41.221Z,69.10
2022-08-11T06:01:41.266Z,69.13
2022-08-11T06:02:41.190Z,68.92
2022-08-11T06:03:41.175Z,69.06
2022-08-11T06:04:42.187Z,69.38
2022-08-11T06:05:43.710Z,67.47
2022-08-11T06:06:45.314Z,70.21
2022-08-11T06:07:48.832Z,68.88
2022-08-11T06:08:42.096Z,67.64
2022-08-11T06:09:41.109Z,70.60
2022-08-11T06:10:41.064Z,68.12
2022-08-11T06:11:43.828Z,67.22
2022-08-11T06:12:41.036Z,67.65
2022-08-11T06:13:41.013Z,68.60
2022-08-11T06:14:41.033Z,69.08
2022-08-11T06:15:40.985Z,68.53
2022-08-11T06:16:40.967Z,69.55
2022-08-11T06:17:40.952Z,70.02
2022-08-11T06:18:40.941Z,69.21
2022-08-11T06:19:40.952Z,67.26
2022-08-11T06:20:40.908Z,67.82
2022-08-11T06:21:40.889Z,70.46
2022-08-11T06:22:40.876Z,69.68
2022-08-11T06:23:40.857Z,68.25
2022-08-11T06:24:40.872Z,68.77
2022-08-11T06:25:40.824Z,69.23
2022-08-11T06:26:55.192Z,70.09
2022-08-11T06:27:42.798Z,68.14
2022-08-11T06:28:40.783Z,67.70
2022-08-11T06:29:47.980Z,68.67
2022-08-11T06:30:41.749Z,68.09
2022-08-11T06:31:40.737Z,68.50
2022-08-11T06:32:40.724Z,67.96
2022-08-11T06:33:40.706Z,69.33
2022-08-11T06:34:40.722Z,66.03
2022-08-11T06:35:40.672Z,68.11
2022-08-11T06:36:40.658Z,66.67
2022-08-11T06:37:40.645Z,70.12
2022-08-11T06:38:40.628Z,68.25
2022-08-11T06:39:40.722Z,69.54
2022-08-11T06:40:40.600Z,69.82
2022-08-11T06:41:40.581Z,69.11
2022-08-11T06:42:40.564Z,70.80
2022-08-11T06:43:41.553Z,70.29
2022-08-11T06:44:41.573Z,69.50
2022-08-11T06:45:40.529Z,69.71
2022-08-11T06:46:40.510Z,68.88
2022-08-11T06:47:40.492Z,67.37
2022-08-11T06:48:40.480Z,68.23
2022-08-11T06:49:40.495Z,68.16
2022-08-11T06:50:40.452Z,67.15
2022-08-11T06:51:41.681Z,69.53
2022-08-11T06:52:40.677Z,67.85
2022-08-11T06:53:40.400Z,68.93
2022-08-11T06:54:40.413Z,68.26
2022-08-11T06:55:57.094Z,67.22
2022-08-11T06:56:41.348Z,68.70
2022-08-11T06:57:40.336Z,70.82
2022-08-11T06:58:40.321Z,68.83
2022-08-11T06:59:40.345Z,68.84
2022-08-11T07:00:40.296Z,69.80
2022-08-11T07:01:40.412Z,69.28
2022-08-11T07:02:40.403Z,69.27
2022-08-11T07:03:40.245Z,67.48
2022-08-11T07:04:40.257Z,68.73
2022-08-11T07:05:40.213Z,66.26
2022-08-11T07:06:50.323Z,65.89
2022-08-11T07:07:41.185Z,66.35
2022-08-11T07:08:40.164Z,69.37
2022-08-11T07:09:40.179Z,67.29
2022-08-11T07:10:40.139Z,68.22
2022-08-11T07:11:40.129Z,67.81
2022-08-11T07:12:40.180Z,67.67
2022-08-11T07:13:45.357Z,68.67
2022-08-11T07:14:42.093Z,68.26
2022-08-11T07:16:10.535Z,66.41
2022-08-11T07:16:41.044Z,68.13
2022-08-11T07:17:40.030Z,67.31
2022-08-11T07:18:40.017Z,67.95
2022-08-11T07:19:40.037Z,69.01
2022-08-11T07:20:39.984Z,68.53
2022-08-11T07:22:00.471Z,67.87
2022-08-11T07:22:40.958Z,66.56
2022-08-11T07:23:39.939Z,66.53
2022-08-11T07:24:59.191Z,64.34
2022-08-11T07:25:40.906Z,66.26
2022-08-11T07:26:39.894Z,66.59
2022-08-11T07:27:39.900Z,67.56
2022-08-11T07:28:39.871Z,67.51
2022-08-11T07:29:39.871Z,68.52
2022-08-11T07:30:39.834Z,68.16
2022-08-11T07:31:39.813Z,67.09
2022-08-11T07:32:39.869Z,66.71
2022-08-11T07:34:07.815Z,68.99
2022-08-11T07:34:40.799Z,66.72
2022-08-11T07:35:39.758Z,66.53
2022-08-11T07:36:39.739Z,66.13
2022-08-11T07:37:39.724Z,68.67
2022-08-11T07:38:39.712Z,68.52
2022-08-11T07:39:39.793Z,66.37
2022-08-11T07:40:39.678Z,68.28
2022-08-11T07:41:39.664Z,68.72
2022-08-11T07:42:39.780Z,68.42
2022-08-11T07:43:39.640Z,67.54
2022-08-11T07:44:39.648Z,68.42
2022-08-11T07:45:39.607Z,67.15
2022-08-11T07:46:39.588Z,69.36
2022-08-11T07:47:39.576Z,67.67
2022-08-11T07:48:39.557Z,67.26
2022-08-11T07:49:39.566Z,67.92
2022-08-11T07:50:39.527Z,65.61
2022-08-11T07:51:39.505Z,68.02
2022-08-11T07:52:40.733Z,67.22
2022-08-11T07:53:57.806Z,65.71
2022-08-11T07:54:40.496Z,66.88
2022-08-11T07:55:51.483Z,65.14
2022-08-11T07:56:55.184Z,64.18
2022-08-11T07:57:59.429Z,67.38
2022-08-11T07:58:45.406Z,65.82
2022-08-11T08:00:03.820Z,66.41
2022-08-11T08:00:40.390Z,69.14
2022-08-11T08:01:39.396Z,66.71
2022-08-11T08:02:39.407Z,66.39
2022-08-11T08:03:39.343Z,66.83
2022-08-11T08:04:43.098Z,67.71
2022-08-11T08:05:40.310Z,67.96
2022-08-11T08:06:39.293Z,65.24
2022-08-11T08:07:39.275Z,67.95
2022-08-11T08:08:39.262Z,68.04
2022-08-11T08:09:39.271Z,69.04
2022-08-11T08:10:39.230Z,68.77
2022-08-11T08:11:39.211Z,67.34
2022-08-11T08:12:39.402Z,69.48
2022-08-11T08:13:39.188Z,70.14
2022-08-11T08:14:39.197Z,67.05
2022-08-11T08:15:39.154Z,67.97
2022-08-11T08:16:39.162Z,67.65
2022-08-11T08:17:39.130Z,69.00
2022-08-11T08:18:39.113Z,69.37
2022-08-11T08:19:39.090Z,67.22
2022-08-11T08:20:39.102Z,67.85
2022-08-11T08:21:39.061Z,68.44
2022-08-11T08:22:40.594Z,67.11
2022-08-11T08:23:40.033Z,67.81
2022-08-11T08:24:39.035Z,68.53
2022-08-11T08:25:38.995Z,68.35
2022-08-11T08:26:38.983Z,66.83
2022-08-11T08:27:38.964Z,68.05
2022-08-11T08:28:38.947Z,68.53
2022-08-11T08:29:38.960Z,68.38
2022-08-11T08:30:38.915Z,68.50
2022-08-11T08:31:38.895Z,68.81
2022-08-11T08:32:39.121Z,67.53
2022-08-11T08:33:38.875Z,67.32
2022-08-11T08:34:38.874Z,67.15
2022-08-11T08:35:55.677Z,67.42
2022-08-11T08:36:39.820Z,66.17
2022-08-11T08:37:46.642Z,67.60
2022-08-11T08:38:39.789Z,67.78
2022-08-11T08:39:38.843Z,67.63
2022-08-11T08:40:38.754Z,68.42
2022-08-11T08:41:38.772Z,66.99
2022-08-11T08:42:42.930Z,66.82
2022-08-11T08:43:48.701Z,67.68
2022-08-11T08:44:41.441Z,66.56
2022-08-11T08:45:39.679Z,67.40
2022-08-11T08:46:38.685Z,67.19
2022-08-11T08:47:42.968Z,68.07
2022-08-11T08:48:38.637Z,67.65
2022-08-11T08:49:40.681Z,66.41
2022-08-11T08:50:38.605Z,67.67
2022-08-11T08:52:02.412Z,68.84
2022-08-11T08:52:41.053Z,68.69
2022-08-11T08:53:39.556Z,67.19
2022-08-11T08:54:39.575Z,67.01
2022-08-11T08:55:42.337Z,67.34
2022-08-11T08:56:40.513Z,64.57
2022-08-11T08:57:38.974Z,68.24
2022-08-11T08:58:38.482Z,66.37
2022-08-11T08:59:49.298Z,66.46
2022-08-11T09:00:39.451Z,65.60
2022-08-11T09:01:38.594Z,68.47
2022-08-11T09:02:38.423Z,66.29
2022-08-11T09:04:07.298Z,65.03
2022-08-11T09:04:40.421Z,69.32
2022-08-11T09:05:38.375Z,68.97
2022-08-11T09:06:38.357Z,68.97
2022-08-11T09:07:39.976Z,68.53
2022-08-11T09:08:38.326Z,69.03
2022-08-11T09:09:38.342Z,69.35
2022-08-11T09:10:38.291Z,69.42
2022-08-11T09:11:38.281Z,70.99
2022-08-11T09:12:39.196Z,69.43
2022-08-11T09:13:38.243Z,67.88
2022-08-11T09:14:38.227Z,68.52
2022-08-11T09:15:38.234Z,68.93
2022-08-11T09:16:38.191Z,69.46
2022-08-11T09:17:38.358Z,67.84
2022-08-11T09:18:38.160Z,67.61
2022-08-11T09:19:38.138Z,70.56
2022-08-11T09:20:38.152Z,70.16
2022-08-11T09:21:48.470Z,70.24
2022-08-11T09:22:39.267Z,68.78
2022-08-11T09:24:40.065Z,71.07
2022-08-11T09:25:38.076Z,69.63
2022-08-11T09:26:38.026Z,69.90
2022-08-11T09:27:38.137Z,70.31
2022-08-11T09:28:37.988Z,70.42
2022-08-11T09:29:37.977Z,70.06
2022-08-11T09:30:38.001Z,70.49
2022-08-11T09:31:40.395Z,70.32
2022-08-11T09:32:38.922Z,68.77
2022-08-11T09:33:37.899Z,70.37
2022-08-11T09:34:37.881Z,68.44
2022-08-11T09:35:37.889Z,70.63
2022-08-11T09:36:37.842Z,67.21
2022-08-11T09:37:56.026Z,70.12
2022-08-11T09:38:38.812Z,72.12
2022-08-11T09:39:37.977Z,69.26
2022-08-11T09:40:38.800Z,69.73
2022-08-11T09:42:01.041Z,71.95
2022-08-11T09:42:38.738Z,71.15
2022-08-11T09:43:37.720Z,70.63
2022-08-11T09:44:37.698Z,70.83
2022-08-11T09:45:40.068Z,70.74
2022-08-11T09:46:37.669Z,71.67
2022-08-11T09:47:37.762Z,71.89
2022-08-11T09:48:37.633Z,70.71
2022-08-11T09:49:37.619Z,69.92
2022-08-11T09:50:37.625Z,70.58
2022-08-11T09:51:37.583Z,67.90
2022-08-11T09:52:37.559Z,71.82
2022-08-11T09:53:40.877Z,70.71
2022-08-11T09:54:37.529Z,69.99
2022-08-11T09:55:37.542Z,71.40
2022-08-11T09:56:37.498Z,69.52
2022-08-11T09:57:37.652Z,70.27
2022-08-11T09:58:42.698Z,69.96
2022-08-11T09:59:38.449Z,70.15
2022-08-11T10:00:37.456Z,69.86
2022-08-11T10:01:37.424Z,72.20
2022-08-11T10:02:37.397Z,71.39
2022-08-11T10:03:40.319Z,71.22
2022-08-11T10:04:38.357Z,71.53
2022-08-11T10:05:37.370Z,69.56
2022-08-11T10:06:37.318Z,70.15
2022-08-11T10:07:37.431Z,70.20
2022-08-11T10:08:37.287Z,70.74
2022-08-11T10:09:37.270Z,70.19
2022-08-11T10:10:37.272Z,70.43
2022-08-11T10:11:37.234Z,70.73
2022-08-11T10:12:37.215Z,69.89
2022-08-11T10:14:30.228Z,70.66
2022-08-11T10:14:42.531Z,69.22
2022-08-11T10:15:38.194Z,70.15
2022-08-11T10:16:37.136Z,69.63
2022-08-11T10:17:37.254Z,69.48
2022-08-11T10:18:37.125Z,68.01
2022-08-11T10:19:37.087Z,70.82
2022-08-11T10:20:37.098Z,71.31
2022-08-11T10:21:37.046Z,71.57
2022-08-11T10:22:37.034Z,69.39
2022-08-11T10:24:01.146Z,68.98
2022-08-11T10:24:37.994Z,71.62
2022-08-11T10:25:37.003Z,70.78
2022-08-11T10:26:36.961Z,71.03
2022-08-11T10:28:18.475Z,71.04
2022-08-11T10:29:02.220Z,68.92
2022-08-11T10:29:45.283Z,67.39
2022-08-11T10:30:37.916Z,68.31
2022-08-11T10:31:57.133Z,69.88
2022-08-11T10:32:44.225Z,68.05
2022-08-11T10:33:42.981Z,69.57
2022-08-11T10:34:37.853Z,69.33
2022-08-11T10:35:36.829Z,70.21
2022-08-11T10:36:36.786Z,70.83
2022-08-11T10:38:08.622Z,71.16
2022-08-11T10:38:37.752Z,69.68
2022-08-11T10:39:36.793Z,68.82
2022-08-11T10:40:36.741Z,71.51
2022-08-11T10:41:36.696Z,70.68
2022-08-11T10:42:57.330Z,69.87
2022-08-11T10:44:01.481Z,69.38
2022-08-11T10:44:37.643Z,71.18
2022-08-11T10:45:36.654Z,68.69
2022-08-11T10:46:36.605Z,68.28
2022-08-11T10:47:36.586Z,68.44
2022-08-11T10:48:36.570Z,69.89
2022-08-11T10:49:36.551Z,66.58
2022-08-11T10:50:36.576Z,68.28
2022-08-11T10:51:50.736Z,68.48
2022-08-11T10:52:37.577Z,67.93
2022-08-11T10:53:36.509Z,66.83
2022-08-11T10:54:36.463Z,68.39
2022-08-11T10:55:36.471Z,68.60
2022-08-11T10:56:36.422Z,67.33
2022-08-11T10:57:36.406Z,66.95
2022-08-11T10:58:36.387Z,68.65
2022-08-11T10:59:36.379Z,66.69
2022-08-11T11:00:36.373Z,65.87
2022-08-11T11:01:36.589Z,70.06
2022-08-11T11:02:36.315Z,67.91
2022-08-11T11:03:36.297Z,68.99
2022-08-11T11:04:36.275Z,71.02
2022-08-11T11:05:36.288Z,66.81
2022-08-11T11:06:37.241Z,71.27
2022-08-11T11:07:36.225Z,71.02
2022-08-11T11:08:37.267Z,70.31
2022-08-11T11:09:36.184Z,70.54
2022-08-11T11:10:36.199Z,69.94
2022-08-11T11:11:36.147Z,69.43
2022-08-11T11:12:36.158Z,71.05
2022-08-11T11:13:36.110Z,73.56
2022-08-11T11:14:36.092Z,72.10
2022-08-11T11:15:37.078Z,72.73
2022-08-11T11:16:36.132Z,71.10
2022-08-11T11:17:36.064Z,72.08
2022-08-11T11:18:36.109Z,71.01
2022-08-11T11:19:36.002Z,71.40
2022-08-11T11:20:39.178Z,69.37
2022-08-11T11:21:35.968Z,69.47
2022-08-11T11:22:35.952Z,71.74
2022-08-11T11:23:35.932Z,69.04
2022-08-11T11:24:35.910Z,68.89
2022-08-11T11:25:35.926Z,72.29
2022-08-11T11:26:35.879Z,73.19
2022-08-11T11:27:35.862Z,70.11
2022-08-11T11:28:36.842Z,70.76
2022-08-11T11:29:35.826Z,69.61
2022-08-11T11:30:35.831Z,70.39
2022-08-11T11:31:35.786Z,68.93
2022-08-11T11:32:35.782Z,69.74
2022-08-11T11:33:35.774Z,67.00
2022-08-11T11:34:36.726Z,68.29
2022-08-11T11:35:36.738Z,69.88
2022-08-11T11:36:35.691Z,70.05
2022-08-11T11:37:35.694Z,71.52
2022-08-11T11:38:35.659Z,70.18
2022-08-11T11:39:35.679Z,70.34
2022-08-11T11:40:35.645Z,68.31
2022-08-11T11:41:35.602Z,69.89
2022-08-11T11:42:35.581Z,69.82
2022-08-11T11:43:35.560Z,70.19
2022-08-11T11:44:35.544Z,69.74
2022-08-11T11:45:35.550Z,69.97
2022-08-11T11:46:39.104Z,69.89
2022-08-11T11:47:35.487Z,69.91
2022-08-11T11:48:35.501Z,70.78
2022-08-11T11:49:35.444Z,70.17
2022-08-11T11:50:35.425Z,70.69
2022-08-11T11:51:35.407Z,70.12
2022-08-11T11:52:35.390Z,69.07
2022-08-11T11:53:35.402Z,69.50
2022-08-11T11:54:35.358Z,69.86
2022-08-11T11:55:35.466Z,69.67
2022-08-11T11:56:35.316Z,69.72
2022-08-11T11:57:35.301Z,70.96
2022-08-11T11:58:35.281Z,70.07
2022-08-11T11:59:35.265Z,70.52
2022-08-11T12:00:35.668Z,70.79
2022-08-11T12:01:35.235Z,71.31
2022-08-11T12:02:35.208Z,70.16
2022-08-11T12:03:35.288Z,68.53
2022-08-11T12:04:35.182Z,70.62
2022-08-11T12:05:35.194Z,71.43
2022-08-11T12:06:35.149Z,72.01
2022-08-11T12:07:35.130Z,70.72
2022-08-11T12:08:35.689Z,70.13
2022-08-11T12:09:35.094Z,68.91
2022-08-11T12:10:35.096Z,69.56
2022-08-11T12:11:35.057Z,70.80
2022-08-11T12:12:35.034Z,71.73
2022-08-11T12:13:35.047Z,69.83
2022-08-11T12:14:34.997Z,71.36
2022-08-11T12:16:31.170Z,68.32
2022-08-11T12:16:36.771Z,70.34
2022-08-11T12:17:35.942Z,71.56
2022-08-11T12:18:34.928Z,71.31
2022-08-11T12:19:35.763Z,70.52
2022-08-11T12:20:34.994Z,70.52
2022-08-11T12:21:34.876Z,71.01
2022-08-11T12:22:34.858Z,71.01
2022-08-11T12:23:34.838Z,71.19
2022-08-11T12:24:34.826Z,70.35
2022-08-11T12:25:34.824Z,70.07
2022-08-11T12:26:34.780Z,68.22
2022-08-11T12:27:34.809Z,70.01
2022-08-11T12:28:34.750Z,70.11
2022-08-11T12:29:34.722Z,72.39
2022-08-11T12:30:34.793Z,70.76
2022-08-11T12:31:34.691Z,71.20
2022-08-11T12:32:34.716Z,70.99
2022-08-11T12:33:38.758Z,70.73
2022-08-11T12:34:35.655Z,71.14
2022-08-11T12:35:34.647Z,71.68
2022-08-11T12:36:34.606Z,72.54
2022-08-11T12:37:34.655Z,71.34
2022-08-11T12:38:34.555Z,71.25
2022-08-11T12:40:16.239Z,70.42
2022-08-11T12:40:42.821Z,69.76
2022-08-11T12:41:35.568Z,71.84
2022-08-11T12:42:34.492Z,68.93
2022-08-11T12:43:39.013Z,70.04
2022-08-11T12:44:35.456Z,71.71
2022-08-11T12:45:34.513Z,69.03
2022-08-11T12:46:34.423Z,70.40
2022-08-11T12:47:34.447Z,70.39
2022-08-11T12:48:58.319Z,68.82
2022-08-11T12:49:35.366Z,70.59
2022-08-11T12:50:34.385Z,68.78
2022-08-11T12:52:00.802Z,67.42
2022-08-11T12:52:35.326Z,71.02
2022-08-11T12:53:34.295Z,68.39